createdAt,value
2018-04-08T00:01:40.946Z,98469.36
2018-04-08T00:04:10.280Z,98466.38
2018-04-08T00:06:38.691Z,98465.81
2018-04-08T00:09:07.864Z,98458.41
2018-04-08T00:11:36.974Z,98456.99
2018-04-08T00:14:06.958Z,98452.09
2018-04-08T00:16:36.211Z,98448.53
2018-04-08T00:19:04.982Z,98450.38
2018-04-08T00:21:34.625Z,98449.18
2018-04-08T00:24:03.232Z,98448.05
2018-04-08T00:26:32.080Z,98445.23
2018-04-08T00:29:01.273Z,98441.45
2018-04-08T00:31:30.419Z,98444.27
2018-04-08T00:33:59.542Z,98443.19
2018-04-08T00:36:29.328Z,98440.04
2018-04-08T00:38:58.516Z,98441.16
2018-04-08T00:41:28.178Z,98435.88
2018-04-08T00:43:56.564Z,98435.56
2018-04-08T00:46:25.062Z,98433.84
2018-04-08T00:48:53.971Z,98435.08
2018-04-08T00:51:24.018Z,98428.79
2018-04-08T00:54:04.672Z,98432.08
2018-04-08T00:56:34.160Z,98429.48
2018-04-08T00:59:03.970Z,98429.61
2018-04-08T01:01:34.036Z,98429.09
2018-04-08T01:04:02.856Z,98422.09
2018-04-08T01:06:32.642Z,98425.69
2018-04-08T01:09:02.246Z,98419.25
2018-04-08T01:11:32.215Z,98422.96
2018-04-08T01:14:02.058Z,98417.63
2018-04-08T01:16:31.211Z,98416.17
2018-04-08T01:19:01.303Z,98416.88
2018-04-08T01:21:30.482Z,98414.20
2018-04-08T01:23:58.889Z,98415.11
2018-04-08T01:26:28.139Z,98412.86
2018-04-08T01:28:56.912Z,98405.09
2018-04-08T01:31:25.506Z,98406.36
2018-04-08T01:33:55.278Z,98405.73
2018-04-08T01:36:24.356Z,98402.23
2018-04-08T01:38:54.362Z,98403.14
2018-04-08T01:41:23.558Z,98407.41
2018-04-08T01:43:51.936Z,98400.73
2018-04-08T01:46:21.884Z,98391.64
2018-04-08T01:48:50.308Z,98394.52
2018-04-08T01:51:19.377Z,98393.89
2018-04-08T01:53:48.145Z,98390.39
2018-04-08T01:56:18.852Z,98389.83
2018-04-08T01:58:48.235Z,98389.44
2018-04-08T02:01:17.860Z,98388.62
2018-04-08T02:03:46.462Z,98388.48
2018-04-08T02:06:17.247Z,98385.42
2018-04-08T02:08:45.919Z,98386.25
2018-04-08T02:11:15.613Z,98393.11
2018-04-08T02:13:45.594Z,98388.89
2018-04-08T02:16:13.999Z,98388.54
2018-04-08T02:18:42.657Z,98386.98
2018-04-08T02:21:11.011Z,98395.89
2018-04-08T02:23:40.082Z,98392.71
2018-04-08T02:26:08.702Z,98387.77
2018-04-08T02:28:37.977Z,98387.87
2018-04-08T02:31:06.444Z,98391.51
2018-04-08T02:33:35.520Z,98395.56
2018-04-08T02:36:05.846Z,98389.41
2018-04-08T02:38:35.252Z,98392.27
2018-04-08T02:41:05.129Z,98395.47
2018-04-08T02:43:35.851Z,98394.55
2018-04-08T02:46:04.263Z,98396.55
2018-04-08T02:48:34.463Z,98403.55
2018-04-08T02:51:03.048Z,98399.89
2018-04-08T02:53:33.338Z,98401.44
2018-04-08T02:56:02.067Z,98398.72
2018-04-08T02:58:30.829Z,98397.72
2018-04-08T03:00:59.654Z,98398.69
2018-04-08T03:03:28.951Z,98396.39
2018-04-08T03:05:57.601Z,98394.52
2018-04-08T03:08:26.663Z,98396.75
2018-04-08T03:10:55.071Z,98394.19
2018-04-08T03:13:23.390Z,98390.08
2018-04-08T03:15:52.777Z,98393.84
2018-04-08T03:18:21.164Z,98387.92
2018-04-08T03:20:50.332Z,98381.19
2018-04-08T03:23:21.014Z,98386.33
2018-04-08T03:25:49.420Z,98384.64
2018-04-08T03:28:19.400Z,98387.40
2018-04-08T03:30:48.735Z,98382.40
2018-04-08T03:33:17.243Z,98386.08
2018-04-08T03:35:46.430Z,98389.81
2018-04-08T03:38:14.806Z,98388.14
2018-04-08T03:40:44.237Z,98381.80
2018-04-08T03:43:13.197Z,98382.41
2018-04-08T03:45:42.627Z,98380.84
2018-04-08T03:48:11.980Z,98378.62
2018-04-08T03:50:41.368Z,98371.70
2018-04-08T03:53:11.086Z,98372.35
2018-04-08T03:55:39.447Z,98368.97
2018-04-08T03:58:07.852Z,98376.07
2018-04-08T04:00:38.046Z,98381.00
2018-04-08T04:03:07.370Z,98379.67
2018-04-08T04:05:37.236Z,98381.01
2018-04-08T04:08:05.638Z,98376.00
2018-04-08T04:10:34.895Z,98378.18
2018-04-08T04:13:04.588Z,98379.06
2018-04-08T04:15:32.984Z,98376.67
2018-04-08T04:18:02.773Z,98373.48
2018-04-08T04:20:43.010Z,98369.81
2018-04-08T04:23:23.785Z,98367.67
2018-04-08T04:26:04.906Z,98371.42
2018-04-08T04:28:33.620Z,98373.38
2018-04-08T04:31:02.039Z,98370.69
2018-04-08T04:33:30.961Z,98369.21
2018-04-08T04:36:00.720Z,98371.02
2018-04-08T04:38:29.859Z,98374.66
2018-04-08T04:40:59.495Z,98377.28
2018-04-08T04:43:28.733Z,98382.85
2018-04-08T04:45:57.571Z,98377.30
2018-04-08T04:48:26.883Z,98370.14
2018-04-08T04:50:56.997Z,98376.13
2018-04-08T04:53:25.342Z,98376.41
2018-04-08T04:55:53.695Z,98378.96
2018-04-08T04:58:22.770Z,98377.80
2018-04-08T05:00:51.919Z,98378.64
2018-04-08T05:03:20.368Z,98379.33
2018-04-08T05:05:49.893Z,98383.91
2018-04-08T05:08:18.951Z,98379.55
2018-04-08T05:10:47.306Z,98377.48
2018-04-08T05:13:15.677Z,98375.34
2018-04-08T05:15:44.859Z,98381.12
2018-04-08T05:18:13.996Z,98379.27
2018-04-08T05:20:43.858Z,98385.58
2018-04-08T05:23:12.307Z,98379.14
2018-04-08T05:25:41.741Z,98384.38
2018-04-08T05:28:10.926Z,98387.00
2018-04-08T05:30:39.295Z,98380.02
2018-04-08T05:33:08.417Z,98385.86
2018-04-08T05:35:36.842Z,98384.20
2018-04-08T05:38:06.367Z,98388.79
2018-04-08T05:40:34.876Z,98382.46
2018-04-08T05:43:04.355Z,98378.06
2018-04-08T05:45:33.987Z,98384.57
2018-04-08T05:48:03.652Z,98383.50
2018-04-08T05:50:32.475Z,98387.11
2018-04-08T05:53:01.782Z,98385.78
2018-04-08T05:55:30.963Z,98390.09
2018-04-08T05:57:59.623Z,98382.44
2018-04-08T06:00:28.815Z,98386.41
2018-04-08T06:02:58.206Z,98383.83
2018-04-08T06:05:26.948Z,98386.09
2018-04-08T06:07:55.810Z,98386.13
2018-04-08T06:10:24.510Z,98383.70
2018-04-08T06:12:54.119Z,98389.62
2018-04-08T06:15:23.658Z,98388.39
2018-04-08T06:17:52.385Z,98389.09
2018-04-08T06:20:22.772Z,98387.44
2018-04-08T06:22:51.190Z,98392.37
2018-04-08T06:25:19.517Z,98393.44
2018-04-08T06:27:48.255Z,98391.34
2018-04-08T06:30:16.721Z,98389.00
2018-04-08T06:32:45.302Z,98387.81
2018-04-08T06:35:15.093Z,98389.57
2018-04-08T06:37:44.386Z,98391.11
2018-04-08T06:40:13.219Z,98387.09
2018-04-08T06:42:41.650Z,98388.07
2018-04-08T06:45:10.485Z,98386.70
2018-04-08T06:47:39.608Z,98389.00
2018-04-08T06:50:09.131Z,98392.85
2018-04-08T06:52:38.247Z,98381.08
2018-04-08T06:55:08.779Z,98389.69
2018-04-08T06:57:37.997Z,98390.30
2018-04-08T07:00:06.572Z,98387.30
2018-04-08T07:02:36.467Z,98383.86
2018-04-08T07:05:04.803Z,98385.84
2018-04-08T07:07:33.766Z,98376.95
2018-04-08T07:10:02.376Z,98382.52
2018-04-08T07:12:32.758Z,98376.75
2018-04-08T07:15:01.088Z,98379.84
2018-04-08T07:17:29.439Z,98380.25
2018-04-08T07:19:58.619Z,98379.37
2018-04-08T07:22:28.867Z,98382.28
2018-04-08T07:24:58.719Z,98377.00
2018-04-08T07:27:27.118Z,98377.50
2018-04-08T07:29:56.646Z,98380.83
2018-04-08T07:32:24.990Z,98378.61
2018-04-08T07:34:55.186Z,98376.94
2018-04-08T07:37:23.552Z,98378.41
2018-04-08T07:39:51.922Z,98376.70
2018-04-08T07:42:21.172Z,98375.78
2018-04-08T07:44:50.138Z,98372.49
2018-04-08T07:47:19.670Z,98376.03
2018-04-08T07:49:48.476Z,98377.20
2018-04-08T07:52:17.774Z,98379.68
2018-04-08T07:54:46.442Z,98378.30
2018-04-08T07:57:14.788Z,98373.38
2018-04-08T07:59:45.696Z,98374.05
2018-04-08T08:02:14.876Z,98363.28
2018-04-08T08:04:43.299Z,98361.44
2018-04-08T08:07:13.107Z,98353.41
2018-04-08T08:09:42.639Z,98359.33
2018-04-08T08:12:11.505Z,98357.67
2018-04-08T08:14:40.494Z,98354.04
2018-04-08T08:17:08.875Z,98351.40
2018-04-08T08:19:37.276Z,98353.77
2018-04-08T08:22:06.467Z,98358.12
2018-04-08T08:27:08.732Z,98358.08
2018-04-08T08:29:37.080Z,98353.41
2018-04-08T08:32:05.945Z,98350.09
2018-04-08T08:34:35.025Z,98357.73
2018-04-08T08:37:04.255Z,98358.98
2018-04-08T08:39:33.136Z,98353.89
2018-04-08T08:42:03.385Z,98357.74
2018-04-08T08:44:31.819Z,98361.17
2018-04-08T08:47:00.142Z,98355.45
2018-04-08T08:49:30.149Z,98354.58
2018-04-08T08:51:59.187Z,98350.45
2018-04-08T08:54:28.481Z,98350.99
2018-04-08T08:56:56.895Z,98347.49
2018-04-08T08:59:25.345Z,98344.84
2018-04-08T09:01:54.308Z,98346.14
2018-04-08T09:04:23.355Z,98349.73
2018-04-08T09:06:52.660Z,98350.13
2018-04-08T09:09:21.313Z,98347.14
2018-04-08T09:11:49.749Z,98344.09
2018-04-08T09:14:19.373Z,98339.22
2018-04-08T09:16:50.000Z,98334.19
2018-04-08T09:19:20.051Z,98340.81
2018-04-08T09:21:51.452Z,98339.00
2018-04-08T09:24:21.943Z,98336.95
2018-04-08T09:26:51.394Z,98336.95
2018-04-08T09:29:20.465Z,98342.08
2018-04-08T09:31:49.127Z,98338.15
2018-04-08T09:34:18.522Z,98334.19
2018-04-08T09:36:47.357Z,98338.05
2018-04-08T09:39:16.061Z,98343.84
2018-04-08T09:41:46.742Z,98339.30
2018-04-08T09:44:16.676Z,98333.96
2018-04-08T09:46:46.928Z,98336.78
2018-04-08T09:49:15.306Z,98336.34
2018-04-08T09:51:43.666Z,98337.21
2018-04-08T09:54:12.040Z,98335.59
2018-04-08T09:56:42.898Z,98338.52
2018-04-08T09:59:13.047Z,98329.72
2018-04-08T10:01:47.666Z,98333.53
2018-04-08T10:04:16.925Z,98333.09
2018-04-08T10:06:46.134Z,98326.88
2018-04-08T10:09:17.408Z,98326.88
2018-04-08T10:11:48.164Z,98315.46
2018-04-08T10:14:17.911Z,98328.05
2018-04-08T10:16:47.882Z,98328.07
2018-04-08T10:19:16.993Z,98325.01
2018-04-08T10:21:46.221Z,98325.42
2018-04-08T10:24:16.118Z,98329.25
2018-04-08T10:26:44.677Z,98315.45
2018-04-08T10:29:14.204Z,98312.08
2018-04-08T10:31:44.537Z,98309.06
2018-04-08T10:34:13.755Z,98306.59
2018-04-08T10:36:42.087Z,98304.91
2018-04-08T10:39:12.032Z,98301.50
2018-04-08T10:41:41.324Z,98297.47
2018-04-08T10:44:12.109Z,98288.14
2018-04-08T10:46:41.362Z,98290.24
2018-04-08T10:49:09.826Z,98290.25
2018-04-08T10:51:41.693Z,98286.45
2018-04-08T10:54:10.177Z,98283.55
2018-04-08T10:56:40.422Z,98280.06
2018-04-08T10:59:11.063Z,98277.41
2018-04-08T11:01:39.496Z,98278.41
2018-04-08T11:04:08.431Z,98272.84
2018-04-08T11:06:36.806Z,98274.07
2018-04-08T11:09:06.710Z,98269.47
2018-04-08T11:11:36.517Z,98272.86
2018-04-08T11:14:04.957Z,98271.16
2018-04-08T11:16:34.039Z,98267.31
2018-04-08T11:19:03.227Z,98262.62
2018-04-08T11:21:32.137Z,98263.30
2018-04-08T11:24:00.492Z,98256.95
2018-04-08T11:26:29.381Z,98254.30
2018-04-08T11:28:59.421Z,98250.95
2018-04-08T11:31:29.496Z,98247.87
2018-04-08T11:33:58.975Z,98246.09
2018-04-08T11:36:28.247Z,98241.77
2018-04-08T11:38:56.703Z,98244.02
2018-04-08T11:41:25.480Z,98250.00
2018-04-08T11:43:54.764Z,98246.59
2018-04-08T11:46:23.863Z,98239.37
2018-04-08T11:48:54.326Z,98239.51
2018-04-08T11:51:24.354Z,98231.40
2018-04-08T11:53:52.709Z,98233.67
2018-04-08T11:56:21.353Z,98231.29
2018-04-08T11:58:50.794Z,98233.32
2018-04-08T12:01:19.739Z,98230.70
2018-04-08T12:03:48.140Z,98229.55
2018-04-08T12:06:17.321Z,98223.59
2018-04-08T12:08:47.084Z,98227.66
2018-04-08T12:11:16.436Z,98228.77
2018-04-08T12:13:45.710Z,98226.02
2018-04-08T12:16:14.596Z,98220.27
2018-04-08T12:18:44.234Z,98222.34
2018-04-08T12:21:13.697Z,98222.23
2018-04-08T12:23:42.111Z,98214.60
2018-04-08T12:26:21.082Z,98205.67
2018-04-08T12:28:50.765Z,98208.23
2018-04-08T12:31:20.067Z,98200.66
2018-04-08T12:33:49.351Z,98198.60
2018-04-08T12:36:24.522Z,98197.23
2018-04-08T12:38:53.716Z,98192.78
2018-04-08T12:41:23.983Z,98194.89
2018-04-08T12:43:52.798Z,98191.45
2018-04-08T12:46:22.048Z,98180.16
2018-04-08T12:48:57.974Z,98190.19
2018-04-08T12:51:33.597Z,98183.22
2018-04-08T12:54:03.345Z,98183.78
2018-04-08T12:56:32.986Z,98175.42
2018-04-08T12:59:01.348Z,98172.52
2018-04-08T13:01:29.697Z,98166.97
2018-04-08T13:03:58.912Z,98162.33
2018-04-08T13:06:27.968Z,98156.25
2018-04-08T13:08:56.610Z,98151.42
2018-04-08T13:11:25.830Z,98157.75
2018-04-08T13:13:54.711Z,98141.60
2018-04-08T13:16:24.354Z,98143.75
2018-04-08T13:18:53.179Z,98143.16
2018-04-08T13:21:22.821Z,98142.66
2018-04-08T13:23:52.938Z,98134.45
2018-04-08T13:26:21.870Z,98138.98
2018-04-08T13:28:51.031Z,98128.75
2018-04-08T13:31:20.172Z,98132.17
2018-04-08T13:33:49.489Z,98131.75
2018-04-08T13:36:18.622Z,98127.16
2018-04-08T13:38:47.798Z,98125.31
2018-04-08T13:41:17.569Z,98124.39
2018-04-08T13:43:46.751Z,98123.86
2018-04-08T13:46:17.700Z,98121.33
2018-04-08T13:48:46.787Z,98114.72
2018-04-08T13:51:15.301Z,98114.53
2018-04-08T13:53:44.642Z,98114.14
2018-04-08T13:56:13.957Z,98112.94
2018-04-08T13:58:43.091Z,98113.19
2018-04-08T14:01:12.453Z,98106.86
2018-04-08T14:03:40.824Z,98105.11
2018-04-08T14:06:09.969Z,98106.37
2018-04-08T14:08:38.309Z,98104.73
2018-04-08T14:11:06.781Z,98101.22
2018-04-08T14:13:36.113Z,98101.89
2018-04-08T14:16:04.698Z,98100.63
2018-04-08T14:18:34.742Z,98096.55
2018-04-08T14:21:04.443Z,98094.22
2018-04-08T14:23:33.713Z,98087.13
2018-04-08T14:26:02.070Z,98075.15
2018-04-08T14:28:31.166Z,98078.50
2018-04-08T14:31:03.876Z,98077.80
2018-04-08T14:33:32.239Z,98075.46
2018-04-08T14:36:02.387Z,98069.83
2018-04-08T14:38:30.723Z,98066.37
2018-04-08T14:40:59.509Z,98061.30
2018-04-08T14:43:28.004Z,98061.62
2018-04-08T14:45:56.405Z,98064.06
2018-04-08T14:48:25.273Z,98056.19
2018-04-08T14:50:54.285Z,98047.53
2018-04-08T14:53:23.441Z,98055.09
2018-04-08T14:55:52.098Z,98051.27
2018-04-08T14:58:21.704Z,98052.03
2018-04-08T15:00:52.805Z,98045.20
2018-04-08T15:03:22.706Z,98041.63
2018-04-08T15:05:52.218Z,98040.53
2018-04-08T15:08:20.631Z,98037.27
2018-04-08T15:10:49.031Z,98035.32
2018-04-08T15:13:17.376Z,98032.83
2018-04-08T15:15:46.467Z,98030.35
2018-04-08T15:18:15.645Z,98028.13
2018-04-08T15:20:44.530Z,98028.74
2018-04-08T15:23:12.900Z,98023.20
2018-04-08T15:25:42.509Z,98020.48
2018-04-08T15:28:11.620Z,98018.70
2018-04-08T15:30:41.132Z,98021.31
2018-04-08T15:33:10.180Z,98014.67
2018-04-08T15:35:38.604Z,98018.02
2018-04-08T15:38:09.536Z,98021.88
2018-04-08T15:40:38.073Z,98015.69
2018-04-08T15:43:06.422Z,98013.48
2018-04-08T15:45:35.691Z,98013.11
2018-04-08T15:48:04.905Z,98013.30
2018-04-08T15:50:34.400Z,98011.72
2018-04-08T15:53:03.544Z,98011.28
2018-04-08T15:55:31.909Z,98002.13
2018-04-08T15:58:01.114Z,98010.67
2018-04-08T16:00:30.489Z,98009.19
2018-04-08T16:02:59.306Z,98015.28
2018-04-08T16:05:27.870Z,98008.95
2018-04-08T16:07:56.672Z,98004.49
2018-04-08T16:10:27.383Z,98007.38
2018-04-08T16:12:56.786Z,98012.11
2018-04-08T16:15:25.213Z,98013.16
2018-04-08T16:17:53.516Z,98011.28
2018-04-08T16:20:21.868Z,98014.56
2018-04-08T16:22:51.060Z,98009.13
2018-04-08T16:25:20.311Z,98015.50
2018-04-08T16:27:48.702Z,98012.79
2018-04-08T16:30:17.265Z,98009.60
2018-04-08T16:32:45.904Z,98012.56
2018-04-08T16:35:14.611Z,98013.02
2018-04-08T16:40:18.019Z,98017.47
2018-04-08T16:42:47.005Z,98007.62
2018-04-08T16:45:15.411Z,98010.92
2018-04-08T16:47:43.752Z,98021.88
2018-04-08T16:50:12.118Z,98021.12
2018-04-08T16:52:41.771Z,98024.50
2018-04-08T16:55:10.445Z,98018.70
2018-04-08T16:57:40.314Z,98015.45
2018-04-08T17:00:08.685Z,98020.52
2018-04-08T17:02:38.539Z,98016.53
2018-04-08T17:05:07.007Z,98016.23
2018-04-08T17:07:35.803Z,98008.22
2018-04-08T17:10:04.232Z,98009.31
2018-04-08T17:12:33.804Z,98004.48
2018-04-08T17:15:03.835Z,98006.68
2018-04-08T17:17:33.700Z,98002.81
2018-04-08T17:20:03.065Z,98001.75
2018-04-08T17:22:31.553Z,98000.92
2018-04-08T17:25:02.867Z,98005.96
2018-04-08T17:27:33.721Z,98008.38
2018-04-08T17:30:02.806Z,98007.84
2018-04-08T17:32:31.976Z,98018.66
2018-04-08T17:35:02.592Z,98024.79
2018-04-08T17:37:31.352Z,98022.59
2018-04-08T17:40:00.542Z,98027.66
2018-04-08T17:42:28.929Z,98029.50
2018-04-08T17:44:58.405Z,98031.22
2018-04-08T17:47:27.139Z,98034.69
2018-04-08T17:49:56.805Z,98030.66
2018-04-08T17:52:25.140Z,98031.03
2018-04-08T17:54:55.118Z,98038.38
2018-04-08T17:57:23.450Z,98035.27
2018-04-08T17:59:52.168Z,98046.55
2018-04-08T18:02:22.536Z,98046.73
2018-04-08T18:04:51.901Z,98048.20
2018-04-08T18:07:20.262Z,98050.97
2018-04-08T18:09:49.057Z,98047.75
2018-04-08T18:12:17.675Z,98052.33
2018-04-08T18:14:46.007Z,98050.94
2018-04-08T18:17:16.375Z,98053.41
2018-04-08T18:19:46.111Z,98055.80
2018-04-08T18:22:14.560Z,98050.30
2018-04-08T18:24:44.593Z,98061.01
2018-04-08T18:27:13.719Z,98059.04
2018-04-08T18:29:42.847Z,98058.63
2018-04-08T18:32:11.190Z,98062.22
2018-04-08T18:34:40.346Z,98061.89
2018-04-08T18:37:08.706Z,98060.84
2018-04-08T18:39:37.862Z,98063.13
2018-04-08T18:42:06.306Z,98062.89
2018-04-08T18:44:36.155Z,98068.36
2018-04-08T18:47:05.313Z,98072.30
2018-04-08T18:49:34.444Z,98071.27
2018-04-08T18:52:03.255Z,98070.44
2018-04-08T18:54:34.132Z,98077.93
2018-04-08T18:57:03.467Z,98078.31
2018-04-08T18:59:32.256Z,98086.05
2018-04-08T19:02:02.351Z,98089.78
2018-04-08T19:04:31.565Z,98092.80
2018-04-08T19:07:00.819Z,98089.13
2018-04-08T19:09:30.854Z,98093.56
2018-04-08T19:12:00.823Z,98099.09
2018-04-08T19:14:35.693Z,98104.30
2018-04-08T19:17:05.011Z,98104.33
2018-04-08T19:19:33.823Z,98112.53
2018-04-08T19:22:03.136Z,98105.94
2018-04-08T19:24:35.054Z,98108.91
2018-04-08T19:27:03.709Z,98105.67
2018-04-08T19:29:33.025Z,98102.30
2018-04-08T19:32:02.319Z,98102.05
2018-04-08T19:34:30.684Z,98104.09
2018-04-08T19:36:59.101Z,98106.64
2018-04-08T19:39:27.841Z,98103.76
2018-04-08T19:41:56.156Z,98107.52
2018-04-08T19:44:24.555Z,98102.84
2018-04-08T19:46:53.639Z,98106.25
2018-04-08T19:49:22.865Z,98107.50
2018-04-08T19:51:51.243Z,98101.91
2018-04-08T19:54:20.406Z,98104.80
2018-04-08T19:56:48.844Z,98103.17
2018-04-08T19:59:18.556Z,98105.47
2018-04-08T20:01:49.334Z,98109.17
2018-04-08T20:04:17.836Z,98107.77
2018-04-08T20:06:47.572Z,98104.88
2018-04-08T20:09:17.848Z,98108.13
2018-04-08T20:11:46.172Z,98113.56
2018-04-08T20:14:16.293Z,98111.47
2018-04-08T20:16:44.646Z,98111.42
2018-04-08T20:19:13.888Z,98108.53
2018-04-08T20:21:42.522Z,98107.42
2018-04-08T20:24:12.491Z,98109.16
2018-04-08T20:26:41.296Z,98112.94
2018-04-08T20:29:10.647Z,98105.14
2018-04-08T20:31:40.981Z,98109.22
2018-04-08T20:34:09.302Z,98104.33
2018-04-08T20:36:38.096Z,98106.06
2018-04-08T20:39:06.414Z,98103.61
2018-04-08T20:41:36.984Z,98103.42
2018-04-08T20:44:06.466Z,98104.65
2018-04-08T20:46:35.456Z,98101.28
2018-04-08T20:49:04.033Z,98100.44
2018-04-08T20:51:33.335Z,98108.13
2018-04-08T20:54:02.379Z,98106.73
2018-04-08T20:56:31.583Z,98098.18
2018-04-08T20:59:00.296Z,98102.80
2018-04-08T21:01:29.599Z,98098.02
2018-04-08T21:03:59.374Z,98101.94
2018-04-08T21:06:27.747Z,98098.69
2018-04-08T21:08:56.806Z,98106.47
2018-04-08T21:11:26.038Z,98106.64
2018-04-08T21:13:54.700Z,98105.40
2018-04-08T21:16:23.324Z,98106.72
2018-04-08T21:18:53.353Z,98104.28
2018-04-08T21:21:21.805Z,98106.80
2018-04-08T21:23:50.341Z,98096.67
2018-04-08T21:26:21.337Z,98099.17
2018-04-08T21:28:50.886Z,98100.70
2018-04-08T21:31:19.372Z,98099.95
2018-04-08T21:33:49.640Z,98095.49
2018-04-08T21:36:18.346Z,98098.53
2018-04-08T21:38:48.235Z,98101.38
2018-04-08T21:41:17.914Z,98103.70
2018-04-08T21:43:46.482Z,98097.95
2018-04-08T21:46:15.342Z,98097.98
2018-04-08T21:48:44.648Z,98097.22
2018-04-08T21:51:13.731Z,98095.19
2018-04-08T21:53:44.410Z,98092.64
2018-04-08T21:56:13.518Z,98090.99
2018-04-08T21:58:41.834Z,98090.88
2018-04-08T22:01:18.122Z,98092.58
2018-04-08T22:03:47.367Z,98086.11
2018-04-08T22:06:16.828Z,98084.83
2018-04-08T22:08:45.583Z,98084.36
2018-04-08T22:11:13.950Z,98080.31
2018-04-08T22:13:42.318Z,98085.39
2018-04-08T22:16:12.306Z,98092.11
2018-04-08T22:18:40.688Z,98087.91
2018-04-08T22:21:09.699Z,98083.66
2018-04-08T22:23:38.094Z,98079.99
2018-04-08T22:26:07.621Z,98080.94
2018-04-08T22:28:36.565Z,98081.02
2018-04-08T22:31:05.760Z,98086.87
2018-04-08T22:33:35.110Z,98084.22
2018-04-08T22:36:05.799Z,98087.75
2018-04-08T22:38:34.128Z,98086.30
2018-04-08T22:41:02.781Z,98094.84
2018-04-08T22:43:32.358Z,98089.89
2018-04-08T22:46:02.996Z,98091.46
2018-04-08T22:48:31.915Z,98092.12
2018-04-08T22:51:01.242Z,98089.56
2018-04-08T22:53:31.604Z,98088.56
2018-04-08T22:56:00.801Z,98090.79
2018-04-08T22:58:30.042Z,98091.66
2018-04-08T23:00:59.318Z,98090.98
2018-04-08T23:03:28.948Z,98087.73
2018-04-08T23:05:57.310Z,98093.06
2018-04-08T23:08:26.431Z,98093.32
2018-04-08T23:10:55.710Z,98088.51
2018-04-08T23:13:24.067Z,98083.75
2018-04-08T23:15:53.211Z,98084.73
2018-04-08T23:18:22.995Z,98085.30
2018-04-08T23:20:53.635Z,98082.25
2018-04-08T23:23:24.865Z,98086.03
2018-04-08T23:25:53.267Z,98088.17
2018-04-08T23:28:22.943Z,98085.61
2018-04-08T23:30:52.661Z,98079.95
2018-04-08T23:33:22.011Z,98081.88
2018-04-08T23:35:51.274Z,98076.41
2018-04-08T23:38:19.662Z,98066.80
2018-04-08T23:40:49.829Z,98070.66
2018-04-08T23:43:20.861Z,98068.66
2018-04-08T23:45:49.204Z,98073.80
2018-04-08T23:48:17.555Z,98070.48
2018-04-08T23:50:46.236Z,98067.53
2018-04-08T23:53:15.854Z,98074.66
2018-04-08T23:55:44.497Z,98073.44
2018-04-08T23:58:12.854Z,98077.19
